sensor_id;sensor_type;location;lat;lon;timestamp;P1;durP1;ratioP1;P2;durP2;ratioP2
22429;SDS011;11382;48.086;11.632;2023-05-07T00:02:19;9.77;;;6.10;;
22429;SDS011;11382;48.086;11.632;2023-05-07T00:04:47;7.47;;;5.78;;
22429;SDS011;11382;48.086;11.632;2023-05-07T00:07:15;7.30;;;5.70;;
22429;SDS011;11382;48.086;11.632;2023-05-07T00:09:43;8.18;;;6.18;;
22429;SDS011;11382;48.086;11.632;2023-05-07T00:12:13;7.10;;;6.10;;
22429;SDS011;11382;48.086;11.632;2023-05-07T00:14:41;9.32;;;6.15;;
22429;SDS011;11382;48.086;11.632;2023-05-07T00:17:09;11.43;;;6.05;;
22429;SDS011;11382;48.086;11.632;2023-05-07T00:19:37;11.75;;;6.47;;
22429;SDS011;11382;48.086;11.632;2023-05-07T00:22:04;7.50;;;6.18;;
22429;SDS011;11382;48.086;11.632;2023-05-07T00:24:33;7.65;;;5.85;;
22429;SDS011;11382;48.086;11.632;2023-05-07T00:27:01;7.65;;;5.70;;
22429;SDS011;11382;48.086;11.632;2023-05-07T00:29:30;8.20;;;5.68;;
22429;SDS011;11382;48.086;11.632;2023-05-07T00:31:58;5.90;;;5.22;;
22429;SDS011;11382;48.086;11.632;2023-05-07T00:34:26;6.70;;;5.50;;
22429;SDS011;11382;48.086;11.632;2023-05-07T00:36:54;6.75;;;5.63;;
22429;SDS011;11382;48.086;11.632;2023-05-07T00:39:22;7.30;;;5.93;;
22429;SDS011;11382;48.086;11.632;2023-05-07T00:41:52;7.50;;;5.80;;
22429;SDS011;11382;48.086;11.632;2023-05-07T00:44:20;8.75;;;5.45;;
22429;SDS011;11382;48.086;11.632;2023-05-07T00:46:50;6.43;;;5.72;;
22429;SDS011;11382;48.086;11.632;2023-05-07T00:49:18;9.30;;;5.50;;
22429;SDS011;11382;48.086;11.632;2023-05-07T00:51:46;7.72;;;6.05;;
22429;SDS011;11382;48.086;11.632;2023-05-07T00:54:14;7.55;;;5.97;;
22429;SDS011;11382;48.086;11.632;2023-05-07T00:56:43;8.30;;;5.53;;
22429;SDS011;11382;48.086;11.632;2023-05-07T00:59:12;7.13;;;5.57;;
22429;SDS011;11382;48.086;11.632;2023-05-07T01:01:40;6.78;;;5.70;;
22429;SDS011;11382;48.086;11.632;2023-05-07T01:04:09;7.82;;;5.28;;
22429;SDS011;11382;48.086;11.632;2023-05-07T01:06:40;6.30;;;5.32;;
22429;SDS011;11382;48.086;11.632;2023-05-07T01:09:09;8.57;;;6.10;;
22429;SDS011;11382;48.086;11.632;2023-05-07T01:11:38;7.68;;;5.20;;
22429;SDS011;11382;48.086;11.632;2023-05-07T01:14:07;9.48;;;5.72;;
22429;SDS011;11382;48.086;11.632;2023-05-07T01:16:36;8.43;;;5.85;;
22429;SDS011;11382;48.086;11.632;2023-05-07T01:19:05;8.27;;;5.78;;
22429;SDS011;11382;48.086;11.632;2023-05-07T01:21:35;8.88;;;5.32;;
22429;SDS011;11382;48.086;11.632;2023-05-07T01:24:07;7.38;;;4.35;;
22429;SDS011;11382;48.086;11.632;2023-05-07T01:26:36;8.00;;;5.75;;
22429;SDS011;11382;48.086;11.632;2023-05-07T01:29:05;7.97;;;6.15;;
22429;SDS011;11382;48.086;11.632;2023-05-07T01:31:36;12.85;;;6.55;;
22429;SDS011;11382;48.086;11.632;2023-05-07T01:34:05;9.10;;;5.95;;
22429;SDS011;11382;48.086;11.632;2023-05-07T01:36:35;10.55;;;6.55;;
22429;SDS011;11382;48.086;11.632;2023-05-07T01:39:05;13.07;;;6.38;;
22429;SDS011;11382;48.086;11.632;2023-05-07T01:41:36;9.07;;;6.85;;
22429;SDS011;11382;48.086;11.632;2023-05-07T01:44:05;7.88;;;5.63;;
22429;SDS011;11382;48.086;11.632;2023-05-07T01:46:33;7.38;;;5.93;;
22429;SDS011;11382;48.086;11.632;2023-05-07T01:49:02;9.45;;;6.20;;
22429;SDS011;11382;48.086;11.632;2023-05-07T01:51:30;8.55;;;5.85;;
22429;SDS011;11382;48.086;11.632;2023-05-07T01:53:59;6.43;;;5.78;;
22429;SDS011;11382;48.086;11.632;2023-05-07T01:56:29;5.95;;;4.95;;
22429;SDS011;11382;48.086;11.632;2023-05-07T01:58:57;6.28;;;5.22;;
22429;SDS011;11382;48.086;11.632;2023-05-07T02:01:27;8.30;;;5.40;;
22429;SDS011;11382;48.086;11.632;2023-05-07T02:03:56;7.28;;;5.53;;
22429;SDS011;11382;48.086;11.632;2023-05-07T02:06:27;7.20;;;5.95;;
22429;SDS011;11382;48.086;11.632;2023-05-07T02:09:00;7.43;;;6.15;;
22429;SDS011;11382;48.086;11.632;2023-05-07T02:11:30;10.18;;;6.18;;
22429;SDS011;11382;48.086;11.632;2023-05-07T02:13:58;7.53;;;5.82;;
22429;SDS011;11382;48.086;11.632;2023-05-07T02:16:26;7.43;;;5.40;;
22429;SDS011;11382;48.086;11.632;2023-05-07T02:18:55;8.00;;;6.00;;
22429;SDS011;11382;48.086;11.632;2023-05-07T02:21:24;8.27;;;6.50;;
22429;SDS011;11382;48.086;11.632;2023-05-07T02:23:55;7.50;;;6.00;;
22429;SDS011;11382;48.086;11.632;2023-05-07T02:26:23;7.65;;;5.75;;
22429;SDS011;11382;48.086;11.632;2023-05-07T02:28:54;6.82;;;6.05;;
22429;SDS011;11382;48.086;11.632;2023-05-07T02:31:21;8.57;;;5.78;;
22429;SDS011;11382;48.086;11.632;2023-05-07T02:33:50;7.30;;;5.22;;
22429;SDS011;11382;48.086;11.632;2023-05-07T02:36:18;7.05;;;5.13;;
22429;SDS011;11382;48.086;11.632;2023-05-07T02:38:56;7.18;;;5.68;;
22429;SDS011;11382;48.086;11.632;2023-05-07T02:41:24;11.55;;;5.78;;
22429;SDS011;11382;48.086;11.632;2023-05-07T02:43:55;8.40;;;5.35;;
22429;SDS011;11382;48.086;11.632;2023-05-07T02:46:23;9.25;;;5.53;;
22429;SDS011;11382;48.086;11.632;2023-05-07T02:48:58;6.40;;;5.25;;
22429;SDS011;11382;48.086;11.632;2023-05-07T02:51:26;7.60;;;5.72;;
22429;SDS011;11382;48.086;11.632;2023-05-07T02:53:57;7.15;;;5.32;;
22429;SDS011;11382;48.086;11.632;2023-05-07T02:56:25;6.78;;;4.78;;
22429;SDS011;11382;48.086;11.632;2023-05-07T02:58:53;6.78;;;5.13;;
22429;SDS011;11382;48.086;11.632;2023-05-07T03:04:00;8.13;;;4.80;;
22429;SDS011;11382;48.086;11.632;2023-05-07T03:06:29;8.52;;;5.30;;
22429;SDS011;11382;48.086;11.632;2023-05-07T03:08:57;6.63;;;5.03;;
22429;SDS011;11382;48.086;11.632;2023-05-07T03:11:28;6.20;;;5.13;;
22429;SDS011;11382;48.086;11.632;2023-05-07T03:13:58;8.00;;;4.63;;
22429;SDS011;11382;48.086;11.632;2023-05-07T03:16:27;6.65;;;5.30;;
22429;SDS011;11382;48.086;11.632;2023-05-07T03:18:56;5.88;;;4.65;;
22429;SDS011;11382;48.086;11.632;2023-05-07T03:21:24;7.07;;;5.03;;
22429;SDS011;11382;48.086;11.632;2023-05-07T03:23:53;5.70;;;5.10;;
22429;SDS011;11382;48.086;11.632;2023-05-07T03:26:21;5.55;;;4.82;;
22429;SDS011;11382;48.086;11.632;2023-05-07T03:28:49;7.00;;;4.93;;
22429;SDS011;11382;48.086;11.632;2023-05-07T03:31:18;8.15;;;5.78;;
22429;SDS011;11382;48.086;11.632;2023-05-07T03:33:50;9.98;;;5.70;;
22429;SDS011;11382;48.086;11.632;2023-05-07T03:36:19;6.43;;;5.32;;
22429;SDS011;11382;48.086;11.632;2023-05-07T03:38:48;9.25;;;5.63;;
22429;SDS011;11382;48.086;11.632;2023-05-07T03:41:20;7.10;;;5.80;;
22429;SDS011;11382;48.086;11.632;2023-05-07T03:43:49;8.07;;;5.35;;
22429;SDS011;11382;48.086;11.632;2023-05-07T03:46:18;8.18;;;5.50;;
22429;SDS011;11382;48.086;11.632;2023-05-07T03:48:47;8.85;;;5.28;;
22429;SDS011;11382;48.086;11.632;2023-05-07T03:51:16;8.35;;;5.10;;
22429;SDS011;11382;48.086;11.632;2023-05-07T03:53:44;8.82;;;5.22;;
22429;SDS011;11382;48.086;11.632;2023-05-07T03:56:12;7.32;;;5.40;;
22429;SDS011;11382;48.086;11.632;2023-05-07T03:58:42;6.43;;;5.03;;
22429;SDS011;11382;48.086;11.632;2023-05-07T04:01:11;6.05;;;5.43;;
22429;SDS011;11382;48.086;11.632;2023-05-07T04:03:42;6.13;;;5.32;;
22429;SDS011;11382;48.086;11.632;2023-05-07T04:06:10;6.15;;;5.30;;
22429;SDS011;11382;48.086;11.632;2023-05-07T04:08:42;5.50;;;4.90;;
22429;SDS011;11382;48.086;11.632;2023-05-07T04:11:10;6.28;;;4.82;;
22429;SDS011;11382;48.086;11.632;2023-05-07T04:13:38;7.95;;;4.57;;
22429;SDS011;11382;48.086;11.632;2023-05-07T04:16:08;6.32;;;4.63;;
22429;SDS011;11382;48.086;11.632;2023-05-07T04:18:37;6.00;;;4.38;;
22429;SDS011;11382;48.086;11.632;2023-05-07T04:21:06;5.45;;;4.43;;
22429;SDS011;11382;48.086;11.632;2023-05-07T04:23:41;7.75;;;4.50;;
22429;SDS011;11382;48.086;11.632;2023-05-07T04:26:11;5.35;;;4.57;;
22429;SDS011;11382;48.086;11.632;2023-05-07T04:28:41;5.95;;;4.45;;
22429;SDS011;11382;48.086;11.632;2023-05-07T04:31:10;9.27;;;5.72;;
22429;SDS011;11382;48.086;11.632;2023-05-07T04:33:39;6.05;;;4.88;;
22429;SDS011;11382;48.086;11.632;2023-05-07T04:36:12;5.28;;;4.22;;
22429;SDS011;11382;48.086;11.632;2023-05-07T04:38:50;5.93;;;4.47;;
22429;SDS011;11382;48.086;11.632;2023-05-07T04:41:19;7.25;;;4.38;;
22429;SDS011;11382;48.086;11.632;2023-05-07T04:43:48;8.23;;;4.53;;
22429;SDS011;11382;48.086;11.632;2023-05-07T04:46:18;4.85;;;4.35;;
22429;SDS011;11382;48.086;11.632;2023-05-07T04:48:48;8.07;;;4.30;;
22429;SDS011;11382;48.086;11.632;2023-05-07T04:51:17;6.20;;;4.60;;
22429;SDS011;11382;48.086;11.632;2023-05-07T04:53:46;4.97;;;4.00;;
22429;SDS011;11382;48.086;11.632;2023-05-07T04:56:14;6.38;;;4.85;;
22429;SDS011;11382;48.086;11.632;2023-05-07T04:58:44;6.68;;;4.63;;
22429;SDS011;11382;48.086;11.632;2023-05-07T05:01:13;5.38;;;4.60;;
22429;SDS011;11382;48.086;11.632;2023-05-07T05:03:41;5.60;;;4.20;;
22429;SDS011;11382;48.086;11.632;2023-05-07T05:06:09;4.88;;;4.10;;
22429;SDS011;11382;48.086;11.632;2023-05-07T05:08:38;8.50;;;4.40;;
22429;SDS011;11382;48.086;11.632;2023-05-07T05:11:08;5.88;;;4.05;;
22429;SDS011;11382;48.086;11.632;2023-05-07T05:13:36;9.27;;;4.90;;
22429;SDS011;11382;48.086;11.632;2023-05-07T05:16:11;6.20;;;5.03;;
22429;SDS011;11382;48.086;11.632;2023-05-07T05:18:39;6.05;;;4.40;;
22429;SDS011;11382;48.086;11.632;2023-05-07T05:21:09;4.45;;;3.92;;
22429;SDS011;11382;48.086;11.632;2023-05-07T05:23:40;5.72;;;4.50;;
22429;SDS011;11382;48.086;11.632;2023-05-07T05:26:08;4.18;;;3.78;;
22429;SDS011;11382;48.086;11.632;2023-05-07T05:28:36;6.72;;;3.90;;
22429;SDS011;11382;48.086;11.632;2023-05-07T05:31:04;5.10;;;3.83;;
22429;SDS011;11382;48.086;11.632;2023-05-07T05:33:35;4.40;;;3.55;;
22429;SDS011;11382;48.086;11.632;2023-05-07T05:36:04;4.03;;;3.25;;
22429;SDS011;11382;48.086;11.632;2023-05-07T05:38:34;4.07;;;3.13;;
22429;SDS011;11382;48.086;11.632;2023-05-07T05:41:04;4.28;;;3.05;;
22429;SDS011;11382;48.086;11.632;2023-05-07T05:43:33;3.17;;;2.75;;
22429;SDS011;11382;48.086;11.632;2023-05-07T05:46:01;4.25;;;3.08;;
22429;SDS011;11382;48.086;11.632;2023-05-07T05:48:30;4.47;;;3.13;;
22429;SDS011;11382;48.086;11.632;2023-05-07T05:51:00;3.17;;;2.78;;
22429;SDS011;11382;48.086;11.632;2023-05-07T05:53:28;4.25;;;3.00;;
22429;SDS011;11382;48.086;11.632;2023-05-07T05:55:57;4.45;;;2.75;;
22429;SDS011;11382;48.086;11.632;2023-05-07T05:58:26;3.13;;;2.83;;
22429;SDS011;11382;48.086;11.632;2023-05-07T06:00:59;5.85;;;2.97;;
22429;SDS011;11382;48.086;11.632;2023-05-07T06:03:29;6.25;;;3.10;;
22429;SDS011;11382;48.086;11.632;2023-05-07T06:06:01;2.97;;;2.55;;
22429;SDS011;11382;48.086;11.632;2023-05-07T06:08:30;3.63;;;2.90;;
22429;SDS011;11382;48.086;11.632;2023-05-07T06:10:59;4.30;;;3.20;;
22429;SDS011;11382;48.086;11.632;2023-05-07T06:13:35;3.83;;;2.80;;
22429;SDS011;11382;48.086;11.632;2023-05-07T06:16:04;4.65;;;3.13;;
22429;SDS011;11382;48.086;11.632;2023-05-07T06:18:33;3.47;;;3.17;;
22429;SDS011;11382;48.086;11.632;2023-05-07T06:21:04;3.08;;;2.83;;
22429;SDS011;11382;48.086;11.632;2023-05-07T06:23:34;3.70;;;2.53;;
22429;SDS011;11382;48.086;11.632;2023-05-07T06:26:04;3.08;;;2.78;;
22429;SDS011;11382;48.086;11.632;2023-05-07T06:28:41;3.78;;;2.80;;
22429;SDS011;11382;48.086;11.632;2023-05-07T06:31:12;6.22;;;2.90;;
22429;SDS011;11382;48.086;11.632;2023-05-07T06:33:45;3.00;;;2.70;;
22429;SDS011;11382;48.086;11.632;2023-05-07T06:36:14;3.38;;;2.80;;
22429;SDS011;11382;48.086;11.632;2023-05-07T06:38:43;3.00;;;2.67;;
22429;SDS011;11382;48.086;11.632;2023-05-07T06:41:14;3.00;;;2.50;;
22429;SDS011;11382;48.086;11.632;2023-05-07T06:43:44;2.72;;;2.35;;
22429;SDS011;11382;48.086;11.632;2023-05-07T06:46:26;4.32;;;2.42;;
22429;SDS011;11382;48.086;11.632;2023-05-07T06:48:55;3.97;;;2.70;;
22429;SDS011;11382;48.086;11.632;2023-05-07T06:51:26;3.70;;;2.58;;
22429;SDS011;11382;48.086;11.632;2023-05-07T06:53:56;3.58;;;2.40;;
22429;SDS011;11382;48.086;11.632;2023-05-07T06:56:25;3.75;;;2.47;;
22429;SDS011;11382;48.086;11.632;2023-05-07T06:58:54;2.72;;;2.28;;
22429;SDS011;11382;48.086;11.632;2023-05-07T07:01:22;2.95;;;2.58;;
22429;SDS011;11382;48.086;11.632;2023-05-07T07:03:51;4.75;;;2.53;;
22429;SDS011;11382;48.086;11.632;2023-05-07T07:06:21;2.50;;;2.30;;
22429;SDS011;11382;48.086;11.632;2023-05-07T07:08:49;5.38;;;2.83;;
22429;SDS011;11382;48.086;11.632;2023-05-07T07:11:18;2.67;;;2.47;;
22429;SDS011;11382;48.086;11.632;2023-05-07T07:13:48;2.33;;;2.13;;
22429;SDS011;11382;48.086;11.632;2023-05-07T07:16:18;2.55;;;2.30;;
22429;SDS011;11382;48.086;11.632;2023-05-07T07:18:47;3.95;;;2.30;;
22429;SDS011;11382;48.086;11.632;2023-05-07T07:21:15;3.80;;;2.28;;
22429;SDS011;11382;48.086;11.632;2023-05-07T07:23:43;3.20;;;2.30;;
22429;SDS011;11382;48.086;11.632;2023-05-07T07:26:11;2.53;;;2.08;;
22429;SDS011;11382;48.086;11.632;2023-05-07T07:28:42;3.17;;;2.13;;
22429;SDS011;11382;48.086;11.632;2023-05-07T07:31:14;2.30;;;2.10;;
22429;SDS011;11382;48.086;11.632;2023-05-07T07:33:43;2.10;;;1.90;;
22429;SDS011;11382;48.086;11.632;2023-05-07T07:36:13;5.10;;;2.15;;
22429;SDS011;11382;48.086;11.632;2023-05-07T07:38:41;2.22;;;1.90;;
22429;SDS011;11382;48.086;11.632;2023-05-07T07:41:09;2.17;;;1.98;;
22429;SDS011;11382;48.086;11.632;2023-05-07T07:43:38;2.15;;;1.95;;
22429;SDS011;11382;48.086;11.632;2023-05-07T07:46:06;2.92;;;2.40;;
22429;SDS011;11382;48.086;11.632;2023-05-07T07:48:35;2.88;;;2.50;;
22429;SDS011;11382;48.086;11.632;2023-05-07T07:51:04;3.65;;;2.22;;
22429;SDS011;11382;48.086;11.632;2023-05-07T07:53:36;4.03;;;2.10;;
22429;SDS011;11382;48.086;11.632;2023-05-07T07:56:04;2.50;;;2.00;;
22429;SDS011;11382;48.086;11.632;2023-05-07T07:58:33;2.85;;;2.15;;
22429;SDS011;11382;48.086;11.632;2023-05-07T08:01:04;3.40;;;2.22;;
22429;SDS011;11382;48.086;11.632;2023-05-07T08:03:32;2.70;;;2.50;;
22429;SDS011;11382;48.086;11.632;2023-05-07T08:06:02;3.65;;;2.35;;
22429;SDS011;11382;48.086;11.632;2023-05-07T08:08:33;2.60;;;2.30;;
22429;SDS011;11382;48.086;11.632;2023-05-07T08:11:01;2.45;;;2.25;;
22429;SDS011;11382;48.086;11.632;2023-05-07T08:13:32;2.45;;;2.10;;
22429;SDS011;11382;48.086;11.632;2023-05-07T08:16:01;3.67;;;2.40;;
22429;SDS011;11382;48.086;11.632;2023-05-07T08:18:29;3.72;;;2.50;;
22429;SDS011;11382;48.086;11.632;2023-05-07T08:21:00;2.90;;;1.95;;
22429;SDS011;11382;48.086;11.632;2023-05-07T08:23:29;2.55;;;2.30;;
22429;SDS011;11382;48.086;11.632;2023-05-07T08:26:03;3.38;;;2.08;;
22429;SDS011;11382;48.086;11.632;2023-05-07T08:28:31;4.05;;;2.70;;
22429;SDS011;11382;48.086;11.632;2023-05-07T08:30:59;3.13;;;2.40;;
22429;SDS011;11382;48.086;11.632;2023-05-07T08:33:32;2.83;;;2.30;;
22429;SDS011;11382;48.086;11.632;2023-05-07T08:36:00;3.25;;;2.13;;
22429;SDS011;11382;48.086;11.632;2023-05-07T08:38:28;2.72;;;2.25;;
22429;SDS011;11382;48.086;11.632;2023-05-07T08:40:58;3.83;;;2.38;;
22429;SDS011;11382;48.086;11.632;2023-05-07T08:43:28;2.70;;;2.50;;
22429;SDS011;11382;48.086;11.632;2023-05-07T08:46:00;7.00;;;2.50;;
22429;SDS011;11382;48.086;11.632;2023-05-07T08:48:34;3.38;;;2.30;;
22429;SDS011;11382;48.086;11.632;2023-05-07T08:51:08;2.30;;;2.10;;
22429;SDS011;11382;48.086;11.632;2023-05-07T08:53:40;4.35;;;2.60;;
22429;SDS011;11382;48.086;11.632;2023-05-07T08:56:14;3.30;;;2.10;;
22429;SDS011;11382;48.086;11.632;2023-05-07T08:58:42;3.47;;;2.28;;
22429;SDS011;11382;48.086;11.632;2023-05-07T09:01:13;3.70;;;2.20;;
22429;SDS011;11382;48.086;11.632;2023-05-07T09:03:45;2.83;;;2.13;;
22429;SDS011;11382;48.086;11.632;2023-05-07T09:06:15;2.55;;;2.25;;
22429;SDS011;11382;48.086;11.632;2023-05-07T09:08:44;2.20;;;2.00;;
22429;SDS011;11382;48.086;11.632;2023-05-07T09:11:23;3.63;;;2.17;;
22429;SDS011;11382;48.086;11.632;2023-05-07T09:13:56;3.03;;;2.30;;
22429;SDS011;11382;48.086;11.632;2023-05-07T09:16:30;4.55;;;2.35;;
22429;SDS011;11382;48.086;11.632;2023-05-07T09:18:59;3.50;;;2.20;;
22429;SDS011;11382;48.086;11.632;2023-05-07T09:21:28;2.58;;;2.10;;
22429;SDS011;11382;48.086;11.632;2023-05-07T09:23:59;3.75;;;1.98;;
22429;SDS011;11382;48.086;11.632;2023-05-07T09:26:35;3.13;;;1.92;;
22429;SDS011;11382;48.086;11.632;2023-05-07T09:29:05;2.22;;;2.00;;
22429;SDS011;11382;48.086;11.632;2023-05-07T09:31:36;4.78;;;2.13;;
22429;SDS011;11382;48.086;11.632;2023-05-07T09:34:06;2.88;;;1.88;;
22429;SDS011;11382;48.086;11.632;2023-05-07T09:36:38;3.50;;;2.00;;
22429;SDS011;11382;48.086;11.632;2023-05-07T09:39:06;4.18;;;2.13;;
22429;SDS011;11382;48.086;11.632;2023-05-07T09:41:44;2.03;;;1.83;;
22429;SDS011;11382;48.086;11.632;2023-05-07T09:44:19;2.05;;;1.75;;
22429;SDS011;11382;48.086;11.632;2023-05-07T09:46:51;2.65;;;2.10;;
22429;SDS011;11382;48.086;11.632;2023-05-07T09:49:33;3.30;;;1.77;;
22429;SDS011;11382;48.086;11.632;2023-05-07T09:52:05;1.88;;;1.60;;
22429;SDS011;11382;48.086;11.632;2023-05-07T09:54:40;2.08;;;1.65;;
22429;SDS011;11382;48.086;11.632;2023-05-07T09:57:13;4.22;;;2.10;;
22429;SDS011;11382;48.086;11.632;2023-05-07T09:59:44;2.30;;;2.00;;
22429;SDS011;11382;48.086;11.632;2023-05-07T10:02:16;4.53;;;1.95;;
22429;SDS011;11382;48.086;11.632;2023-05-07T10:04:50;3.90;;;1.90;;
22429;SDS011;11382;48.086;11.632;2023-05-07T10:07:25;3.67;;;1.83;;
22429;SDS011;11382;48.086;11.632;2023-05-07T10:09:58;2.40;;;2.00;;
22429;SDS011;11382;48.086;11.632;2023-05-07T10:12:34;2.25;;;1.90;;
22429;SDS011;11382;48.086;11.632;2023-05-07T10:15:10;4.00;;;1.92;;
22429;SDS011;11382;48.086;11.632;2023-05-07T10:17:46;3.08;;;1.75;;
22429;SDS011;11382;48.086;11.632;2023-05-07T10:20:18;3.90;;;2.10;;
22429;SDS011;11382;48.086;11.632;2023-05-07T10:22:47;2.47;;;2.28;;
22429;SDS011;11382;48.086;11.632;2023-05-07T10:25:25;2.92;;;2.10;;
22429;SDS011;11382;48.086;11.632;2023-05-07T10:28:05;3.70;;;2.50;;
22429;SDS011;11382;48.086;11.632;2023-05-07T10:30:39;3.90;;;1.90;;
22429;SDS011;11382;48.086;11.632;2023-05-07T10:35:52;3.83;;;2.45;;
22429;SDS011;11382;48.086;11.632;2023-05-07T10:38:25;2.95;;;2.30;;
22429;SDS011;11382;48.086;11.632;2023-05-07T10:40:56;3.70;;;2.33;;
22429;SDS011;11382;48.086;11.632;2023-05-07T10:43:26;3.00;;;2.10;;
22429;SDS011;11382;48.086;11.632;2023-05-07T10:46:10;2.70;;;2.20;;
22429;SDS011;11382;48.086;11.632;2023-05-07T10:51:49;2.17;;;1.90;;
22429;SDS011;11382;48.086;11.632;2023-05-07T10:55:20;3.58;;;2.17;;
22429;SDS011;11382;48.086;11.632;2023-05-07T10:58:24;1.88;;;1.77;;
22429;SDS011;11382;48.086;11.632;2023-05-07T11:01:10;3.65;;;1.80;;
22429;SDS011;11382;48.086;11.632;2023-05-07T11:06:44;2.47;;;2.10;;
22429;SDS011;11382;48.086;11.632;2023-05-07T11:09:58;2.45;;;2.20;;
22429;SDS011;11382;48.086;11.632;2023-05-07T11:12:51;1.75;;;1.45;;
22429;SDS011;11382;48.086;11.632;2023-05-07T11:15:34;2.05;;;1.30;;
22429;SDS011;11382;48.086;11.632;2023-05-07T11:18:11;3.15;;;1.77;;
22429;SDS011;11382;48.086;11.632;2023-05-07T11:20:47;2.72;;;2.03;;
22429;SDS011;11382;48.086;11.632;2023-05-07T11:26:42;4.10;;;1.95;;
22429;SDS011;11382;48.086;11.632;2023-05-07T11:29:20;3.70;;;1.98;;
22429;SDS011;11382;48.086;11.632;2023-05-07T11:31:55;3.47;;;2.17;;
22429;SDS011;11382;48.086;11.632;2023-05-07T11:34:29;1.95;;;1.55;;
22429;SDS011;11382;48.086;11.632;2023-05-07T11:36:58;3.50;;;1.90;;
22429;SDS011;11382;48.086;11.632;2023-05-07T11:39:43;3.03;;;2.08;;
22429;SDS011;11382;48.086;11.632;2023-05-07T11:42:25;2.53;;;2.13;;
22429;SDS011;11382;48.086;11.632;2023-05-07T11:44:53;3.67;;;2.20;;
22429;SDS011;11382;48.086;11.632;2023-05-07T11:47:21;4.40;;;2.80;;
22429;SDS011;11382;48.086;11.632;2023-05-07T11:49:50;2.55;;;2.22;;
22429;SDS011;11382;48.086;11.632;2023-05-07T11:52:19;3.63;;;2.20;;
22429;SDS011;11382;48.086;11.632;2023-05-07T11:54:50;2.42;;;1.70;;
22429;SDS011;11382;48.086;11.632;2023-05-07T11:57:19;3.25;;;2.35;;
22429;SDS011;11382;48.086;11.632;2023-05-07T11:59:52;6.03;;;2.53;;
22429;SDS011;11382;48.086;11.632;2023-05-07T12:02:20;2.47;;;2.17;;
22429;SDS011;11382;48.086;11.632;2023-05-07T12:04:51;2.15;;;1.90;;
22429;SDS011;11382;48.086;11.632;2023-05-07T12:07:20;3.85;;;2.38;;
22429;SDS011;11382;48.086;11.632;2023-05-07T12:09:49;4.57;;;2.78;;
22429;SDS011;11382;48.086;11.632;2023-05-07T12:12:17;3.78;;;2.80;;
22429;SDS011;11382;48.086;11.632;2023-05-07T12:14:45;3.97;;;2.55;;
22429;SDS011;11382;48.086;11.632;2023-05-07T12:17:14;3.85;;;2.95;;
22429;SDS011;11382;48.086;11.632;2023-05-07T12:19:43;3.40;;;3.10;;
22429;SDS011;11382;48.086;11.632;2023-05-07T12:22:12;4.15;;;2.97;;
22429;SDS011;11382;48.086;11.632;2023-05-07T12:24:46;3.13;;;2.55;;
22429;SDS011;11382;48.086;11.632;2023-05-07T12:27:17;4.78;;;2.85;;
22429;SDS011;11382;48.086;11.632;2023-05-07T12:29:46;3.95;;;2.90;;
22429;SDS011;11382;48.086;11.632;2023-05-07T12:32:16;4.97;;;2.80;;
22429;SDS011;11382;48.086;11.632;2023-05-07T12:34:45;4.15;;;2.63;;
22429;SDS011;11382;48.086;11.632;2023-05-07T12:37:13;4.43;;;2.65;;
22429;SDS011;11382;48.086;11.632;2023-05-07T12:39:46;4.43;;;3.03;;
22429;SDS011;11382;48.086;11.632;2023-05-07T12:42:15;3.50;;;3.05;;
22429;SDS011;11382;48.086;11.632;2023-05-07T12:44:50;3.42;;;2.58;;
22429;SDS011;11382;48.086;11.632;2023-05-07T12:47:18;4.43;;;2.70;;
22429;SDS011;11382;48.086;11.632;2023-05-07T12:49:47;3.40;;;2.80;;
22429;SDS011;11382;48.086;11.632;2023-05-07T12:52:15;4.22;;;2.90;;
22429;SDS011;11382;48.086;11.632;2023-05-07T12:54:43;4.22;;;3.08;;
22429;SDS011;11382;48.086;11.632;2023-05-07T12:57:11;3.10;;;2.80;;
22429;SDS011;11382;48.086;11.632;2023-05-07T12:59:41;3.67;;;3.28;;
22429;SDS011;11382;48.086;11.632;2023-05-07T13:02:09;4.60;;;2.90;;
22429;SDS011;11382;48.086;11.632;2023-05-07T13:04:40;5.55;;;3.05;;
22429;SDS011;11382;48.086;11.632;2023-05-07T13:07:09;4.07;;;2.80;;
22429;SDS011;11382;48.086;11.632;2023-05-07T13:09:37;4.72;;;2.70;;
22429;SDS011;11382;48.086;11.632;2023-05-07T13:12:05;2.90;;;2.58;;
22429;SDS011;11382;48.086;11.632;2023-05-07T13:14:33;5.05;;;2.80;;
22429;SDS011;11382;48.086;11.632;2023-05-07T13:17:03;4.80;;;2.95;;
22429;SDS011;11382;48.086;11.632;2023-05-07T13:19:31;6.40;;;3.13;;
22429;SDS011;11382;48.086;11.632;2023-05-07T13:21:58;2.95;;;2.63;;
22429;SDS011;11382;48.086;11.632;2023-05-07T13:24:26;5.07;;;3.25;;
22429;SDS011;11382;48.086;11.632;2023-05-07T13:26:54;4.47;;;2.92;;
22429;SDS011;11382;48.086;11.632;2023-05-07T13:29:22;3.20;;;2.55;;
22429;SDS011;11382;48.086;11.632;2023-05-07T13:31:55;4.93;;;2.90;;
22429;SDS011;11382;48.086;11.632;2023-05-07T13:34:25;4.53;;;2.80;;
22429;SDS011;11382;48.086;11.632;2023-05-07T13:36:53;5.82;;;3.05;;
22429;SDS011;11382;48.086;11.632;2023-05-07T13:39:21;3.17;;;2.70;;
22429;SDS011;11382;48.086;11.632;2023-05-07T13:41:49;2.85;;;2.55;;
22429;SDS011;11382;48.086;11.632;2023-05-07T13:44:17;3.40;;;2.80;;
22429;SDS011;11382;48.086;11.632;2023-05-07T13:46:46;2.90;;;2.60;;
22429;SDS011;11382;48.086;11.632;2023-05-07T13:49:14;3.60;;;2.40;;
22429;SDS011;11382;48.086;11.632;2023-05-07T13:51:43;3.25;;;2.33;;
22429;SDS011;11382;48.086;11.632;2023-05-07T13:54:11;6.93;;;2.70;;
22429;SDS011;11382;48.086;11.632;2023-05-07T13:56:39;3.67;;;2.40;;
22429;SDS011;11382;48.086;11.632;2023-05-07T13:59:07;5.22;;;2.45;;
22429;SDS011;11382;48.086;11.632;2023-05-07T14:01:35;2.60;;;2.33;;
22429;SDS011;11382;48.086;11.632;2023-05-07T14:04:04;4.30;;;2.67;;
22429;SDS011;11382;48.086;11.632;2023-05-07T14:06:32;3.33;;;2.55;;
22429;SDS011;11382;48.086;11.632;2023-05-07T14:09:01;3.85;;;2.50;;
22429;SDS011;11382;48.086;11.632;2023-05-07T14:11:29;3.28;;;2.38;;
22429;SDS011;11382;48.086;11.632;2023-05-07T14:13:59;3.53;;;2.45;;
22429;SDS011;11382;48.086;11.632;2023-05-07T14:16:27;3.00;;;2.70;;
22429;SDS011;11382;48.086;11.632;2023-05-07T14:18:55;4.55;;;2.10;;
22429;SDS011;11382;48.086;11.632;2023-05-07T14:21:24;4.80;;;2.17;;
22429;SDS011;11382;48.086;11.632;2023-05-07T14:23:52;4.75;;;2.50;;
22429;SDS011;11382;48.086;11.632;2023-05-07T14:26:21;2.50;;;2.17;;
22429;SDS011;11382;48.086;11.632;2023-05-07T14:28:49;4.75;;;2.13;;
22429;SDS011;11382;48.086;11.632;2023-05-07T14:31:17;2.50;;;2.20;;
22429;SDS011;11382;48.086;11.632;2023-05-07T14:33:45;3.17;;;2.22;;
22429;SDS011;11382;48.086;11.632;2023-05-07T14:36:13;2.75;;;2.40;;
22429;SDS011;11382;48.086;11.632;2023-05-07T14:38:43;2.17;;;2.00;;
22429;SDS011;11382;48.086;11.632;2023-05-07T14:41:11;2.78;;;2.20;;
22429;SDS011;11382;48.086;11.632;2023-05-07T14:43:40;4.70;;;2.20;;
22429;SDS011;11382;48.086;11.632;2023-05-07T14:46:08;2.80;;;2.47;;
22429;SDS011;11382;48.086;11.632;2023-05-07T14:48:37;2.70;;;2.45;;
22429;SDS011;11382;48.086;11.632;2023-05-07T14:51:06;2.92;;;2.08;;
22429;SDS011;11382;48.086;11.632;2023-05-07T14:53:34;4.15;;;2.20;;
22429;SDS011;11382;48.086;11.632;2023-05-07T14:56:04;2.60;;;2.20;;
22429;SDS011;11382;48.086;11.632;2023-05-07T14:58:32;3.22;;;2.17;;
22429;SDS011;11382;48.086;11.632;2023-05-07T15:01:03;2.20;;;2.00;;
22429;SDS011;11382;48.086;11.632;2023-05-07T15:03:31;3.25;;;2.35;;
22429;SDS011;11382;48.086;11.632;2023-05-07T15:05:59;3.20;;;2.10;;
22429;SDS011;11382;48.086;11.632;2023-05-07T15:08:29;3.63;;;2.25;;